sensor_id;sensor_type;location;lat;lon;timestamp;P1;durP1;ratioP1;P2;durP2;ratioP2
38465;SDS011;24244;51.950;5.902;2023-11-22T00:01:13;7.78;;;4.63;;
38465;SDS011;24244;51.950;5.902;2023-11-22T00:03:40;8.07;;;4.45;;
38465;SDS011;24244;51.950;5.902;2023-11-22T00:06:07;8.73;;;4.55;;
38465;SDS011;24244;51.950;5.902;2023-11-22T00:08:34;9.55;;;5.47;;
38465;SDS011;24244;51.950;5.902;2023-11-22T00:11:01;8.02;;;4.50;;
38465;SDS011;24244;51.950;5.902;2023-11-22T00:13:29;8.82;;;4.75;;
38465;SDS011;24244;51.950;5.902;2023-11-22T00:15:56;11.48;;;5.15;;
38465;SDS011;24244;51.950;5.902;2023-11-22T00:18:26;9.00;;;4.70;;
38465;SDS011;24244;51.950;5.902;2023-11-22T00:20:53;8.10;;;5.00;;
38465;SDS011;24244;51.950;5.902;2023-11-22T00:23:21;8.65;;;4.65;;
38465;SDS011;24244;51.950;5.902;2023-11-22T00:25:53;8.68;;;5.10;;
38465;SDS011;24244;51.950;5.902;2023-11-22T00:28:20;8.57;;;4.63;;
38465;SDS011;24244;51.950;5.902;2023-11-22T00:30:48;9.57;;;4.65;;
38465;SDS011;24244;51.950;5.902;2023-11-22T00:33:15;8.57;;;4.85;;
38465;SDS011;24244;51.950;5.902;2023-11-22T00:35:46;7.85;;;4.40;;
38465;SDS011;24244;51.950;5.902;2023-11-22T00:38:13;9.73;;;5.20;;
38465;SDS011;24244;51.950;5.902;2023-11-22T00:40:40;8.80;;;4.47;;
38465;SDS011;24244;51.950;5.902;2023-11-22T00:43:07;9.82;;;5.15;;
38465;SDS011;24244;51.950;5.902;2023-11-22T00:45:35;9.00;;;4.50;;
38465;SDS011;24244;51.950;5.902;2023-11-22T00:48:03;7.68;;;4.13;;
38465;SDS011;24244;51.950;5.902;2023-11-22T00:50:30;7.88;;;4.25;;
38465;SDS011;24244;51.950;5.902;2023-11-22T00:52:57;8.82;;;4.47;;
38465;SDS011;24244;51.950;5.902;2023-11-22T00:55:24;10.98;;;5.38;;
38465;SDS011;24244;51.950;5.902;2023-11-22T00:57:51;7.35;;;3.90;;
38465;SDS011;24244;51.950;5.902;2023-11-22T01:00:17;7.55;;;4.07;;
38465;SDS011;24244;51.950;5.902;2023-11-22T01:02:44;7.40;;;4.40;;
38465;SDS011;24244;51.950;5.902;2023-11-22T01:05:13;7.15;;;3.88;;
38465;SDS011;24244;51.950;5.902;2023-11-22T01:07:42;8.10;;;4.60;;
38465;SDS011;24244;51.950;5.902;2023-11-22T01:10:09;7.05;;;3.70;;
38465;SDS011;24244;51.950;5.902;2023-11-22T01:12:36;6.88;;;4.05;;
38465;SDS011;24244;51.950;5.902;2023-11-22T01:15:04;8.18;;;4.32;;
38465;SDS011;24244;51.950;5.902;2023-11-22T01:17:32;7.57;;;4.22;;
38465;SDS011;24244;51.950;5.902;2023-11-22T01:20:00;7.90;;;4.63;;
38465;SDS011;24244;51.950;5.902;2023-11-22T01:22:29;5.88;;;3.65;;
38465;SDS011;24244;51.950;5.902;2023-11-22T01:24:56;7.55;;;4.35;;
38465;SDS011;24244;51.950;5.902;2023-11-22T01:27:22;7.03;;;3.83;;
38465;SDS011;24244;51.950;5.902;2023-11-22T01:29:50;7.85;;;3.90;;
38465;SDS011;24244;51.950;5.902;2023-11-22T01:32:20;7.18;;;3.88;;
38465;SDS011;24244;51.950;5.902;2023-11-22T01:34:47;7.75;;;3.92;;
38465;SDS011;24244;51.950;5.902;2023-11-22T01:40:14;7.10;;;3.60;;
38465;SDS011;24244;51.950;5.902;2023-11-22T01:42:41;7.05;;;3.67;;
38465;SDS011;24244;51.950;5.902;2023-11-22T01:45:08;6.05;;;3.40;;
38465;SDS011;24244;51.950;5.902;2023-11-22T01:47:36;6.65;;;3.63;;
38465;SDS011;24244;51.950;5.902;2023-11-22T01:50:04;6.95;;;3.55;;
38465;SDS011;24244;51.950;5.902;2023-11-22T01:52:34;7.13;;;3.65;;
38465;SDS011;24244;51.950;5.902;2023-11-22T01:55:02;7.07;;;4.15;;
38465;SDS011;24244;51.950;5.902;2023-11-22T01:57:32;7.10;;;3.53;;
38465;SDS011;24244;51.950;5.902;2023-11-22T02:00:03;6.47;;;3.80;;
38465;SDS011;24244;51.950;5.902;2023-11-22T02:02:34;6.50;;;3.83;;
38465;SDS011;24244;51.950;5.902;2023-11-22T02:05:01;7.53;;;3.67;;
38465;SDS011;24244;51.950;5.902;2023-11-22T02:07:28;9.43;;;4.45;;
38465;SDS011;24244;51.950;5.902;2023-11-22T02:09:55;7.75;;;3.95;;
38465;SDS011;24244;51.950;5.902;2023-11-22T02:12:22;8.50;;;4.43;;
38465;SDS011;24244;51.950;5.902;2023-11-22T02:14:51;7.85;;;4.32;;
38465;SDS011;24244;51.950;5.902;2023-11-22T02:17:18;10.43;;;4.55;;
38465;SDS011;24244;51.950;5.902;2023-11-22T02:19:45;7.95;;;4.22;;
38465;SDS011;24244;51.950;5.902;2023-11-22T02:22:11;7.05;;;3.92;;
38465;SDS011;24244;51.950;5.902;2023-11-22T02:24:39;9.95;;;4.65;;
38465;SDS011;24244;51.950;5.902;2023-11-22T02:27:06;8.27;;;3.83;;
38465;SDS011;24244;51.950;5.902;2023-11-22T02:29:33;8.35;;;4.38;;
38465;SDS011;24244;51.950;5.902;2023-11-22T02:32:00;7.15;;;3.80;;
38465;SDS011;24244;51.950;5.902;2023-11-22T02:34:27;9.38;;;4.65;;
38465;SDS011;24244;51.950;5.902;2023-11-22T02:36:54;7.90;;;4.35;;
38465;SDS011;24244;51.950;5.902;2023-11-22T02:39:43;8.02;;;4.38;;
38465;SDS011;24244;51.950;5.902;2023-11-22T02:42:21;8.40;;;4.00;;
38465;SDS011;24244;51.950;5.902;2023-11-22T02:44:47;7.93;;;4.03;;
38465;SDS011;24244;51.950;5.902;2023-11-22T02:47:14;6.95;;;3.38;;
38465;SDS011;24244;51.950;5.902;2023-11-22T02:49:42;7.32;;;3.55;;
38465;SDS011;24244;51.950;5.902;2023-11-22T02:52:09;8.50;;;3.92;;
38465;SDS011;24244;51.950;5.902;2023-11-22T02:54:40;7.13;;;3.95;;
38465;SDS011;24244;51.950;5.902;2023-11-22T02:57:09;8.10;;;3.72;;
38465;SDS011;24244;51.950;5.902;2023-11-22T02:59:36;6.90;;;3.92;;
38465;SDS011;24244;51.950;5.902;2023-11-22T03:02:03;6.93;;;4.00;;
38465;SDS011;24244;51.950;5.902;2023-11-22T03:04:30;6.25;;;3.08;;
38465;SDS011;24244;51.950;5.902;2023-11-22T03:06:56;7.18;;;3.67;;
38465;SDS011;24244;51.950;5.902;2023-11-22T03:09:23;6.72;;;3.47;;
38465;SDS011;24244;51.950;5.902;2023-11-22T03:11:50;7.50;;;3.45;;
38465;SDS011;24244;51.950;5.902;2023-11-22T03:14:18;6.65;;;3.50;;
38465;SDS011;24244;51.950;5.902;2023-11-22T03:16:45;6.85;;;3.60;;
38465;SDS011;24244;51.950;5.902;2023-11-22T03:19:13;6.35;;;3.33;;
38465;SDS011;24244;51.950;5.902;2023-11-22T03:21:39;6.47;;;3.63;;
38465;SDS011;24244;51.950;5.902;2023-11-22T03:24:07;6.65;;;3.60;;
38465;SDS011;24244;51.950;5.902;2023-11-22T03:26:34;7.75;;;4.10;;
38465;SDS011;24244;51.950;5.902;2023-11-22T03:29:02;7.90;;;3.90;;
38465;SDS011;24244;51.950;5.902;2023-11-22T03:31:30;7.47;;;3.40;;
38465;SDS011;24244;51.950;5.902;2023-11-22T03:33:57;9.13;;;4.07;;
38465;SDS011;24244;51.950;5.902;2023-11-22T03:36:24;7.60;;;4.05;;
38465;SDS011;24244;51.950;5.902;2023-11-22T03:38:51;8.35;;;4.80;;
38465;SDS011;24244;51.950;5.902;2023-11-22T03:41:18;6.30;;;3.60;;
38465;SDS011;24244;51.950;5.902;2023-11-22T03:43:45;6.90;;;3.95;;
38465;SDS011;24244;51.950;5.902;2023-11-22T03:46:12;7.43;;;3.58;;
38465;SDS011;24244;51.950;5.902;2023-11-22T03:48:40;7.78;;;4.10;;
38465;SDS011;24244;51.950;5.902;2023-11-22T03:51:07;7.75;;;3.78;;
38465;SDS011;24244;51.950;5.902;2023-11-22T03:53:34;7.50;;;4.43;;
38465;SDS011;24244;51.950;5.902;2023-11-22T03:56:01;6.32;;;4.00;;
38465;SDS011;24244;51.950;5.902;2023-11-22T03:58:28;8.82;;;3.95;;
38465;SDS011;24244;51.950;5.902;2023-11-22T04:03:41;7.20;;;3.72;;
38465;SDS011;24244;51.950;5.902;2023-11-22T04:06:08;7.80;;;3.85;;
38465;SDS011;24244;51.950;5.902;2023-11-22T04:08:35;7.72;;;3.90;;
38465;SDS011;24244;51.950;5.902;2023-11-22T04:11:03;6.95;;;3.60;;
38465;SDS011;24244;51.950;5.902;2023-11-22T04:13:31;8.23;;;3.92;;
38465;SDS011;24244;51.950;5.902;2023-11-22T04:15:58;8.00;;;4.03;;
38465;SDS011;24244;51.950;5.902;2023-11-22T04:18:26;7.78;;;4.13;;
38465;SDS011;24244;51.950;5.902;2023-11-22T04:20:55;8.48;;;4.32;;
38465;SDS011;24244;51.950;5.902;2023-11-22T04:23:24;7.78;;;4.10;;
38465;SDS011;24244;51.950;5.902;2023-11-22T04:25:51;7.28;;;4.40;;
38465;SDS011;24244;51.950;5.902;2023-11-22T04:28:18;8.82;;;4.53;;
38465;SDS011;24244;51.950;5.902;2023-11-22T04:30:45;9.30;;;4.25;;
38465;SDS011;24244;51.950;5.902;2023-11-22T04:33:11;8.07;;;4.68;;
38465;SDS011;24244;51.950;5.902;2023-11-22T04:35:38;10.30;;;4.93;;
38465;SDS011;24244;51.950;5.902;2023-11-22T04:38:07;9.38;;;4.70;;
38465;SDS011;24244;51.950;5.902;2023-11-22T04:40:34;10.63;;;4.60;;
38465;SDS011;24244;51.950;5.902;2023-11-22T04:43:01;9.43;;;4.43;;
38465;SDS011;24244;51.950;5.902;2023-11-22T04:45:28;8.48;;;4.47;;
38465;SDS011;24244;51.950;5.902;2023-11-22T04:47:55;8.45;;;4.38;;
38465;SDS011;24244;51.950;5.902;2023-11-22T04:50:25;8.52;;;4.47;;
38465;SDS011;24244;51.950;5.902;2023-11-22T04:52:52;7.75;;;4.80;;
38465;SDS011;24244;51.950;5.902;2023-11-22T04:55:20;9.05;;;4.53;;
38465;SDS011;24244;51.950;5.902;2023-11-22T04:57:49;9.38;;;4.88;;
38465;SDS011;24244;51.950;5.902;2023-11-22T05:00:16;8.10;;;4.05;;
38465;SDS011;24244;51.950;5.902;2023-11-22T05:02:44;7.30;;;3.75;;
38465;SDS011;24244;51.950;5.902;2023-11-22T05:05:11;8.98;;;3.85;;
38465;SDS011;24244;51.950;5.902;2023-11-22T05:07:39;8.73;;;4.38;;
38465;SDS011;24244;51.950;5.902;2023-11-22T05:10:06;7.18;;;3.92;;
38465;SDS011;24244;51.950;5.902;2023-11-22T05:12:37;8.63;;;3.97;;
38465;SDS011;24244;51.950;5.902;2023-11-22T05:15:05;7.97;;;4.38;;
38465;SDS011;24244;51.950;5.902;2023-11-22T05:17:33;9.60;;;4.05;;
38465;SDS011;24244;51.950;5.902;2023-11-22T05:20:00;7.25;;;3.95;;
38465;SDS011;24244;51.950;5.902;2023-11-22T05:22:26;7.88;;;4.18;;
38465;SDS011;24244;51.950;5.902;2023-11-22T05:24:53;9.68;;;4.70;;
38465;SDS011;24244;51.950;5.902;2023-11-22T05:27:20;8.70;;;4.55;;
38465;SDS011;24244;51.950;5.902;2023-11-22T05:29:48;7.88;;;4.07;;
38465;SDS011;24244;51.950;5.902;2023-11-22T05:32:21;8.88;;;4.65;;
38465;SDS011;24244;51.950;5.902;2023-11-22T05:34:48;8.85;;;4.57;;
38465;SDS011;24244;51.950;5.902;2023-11-22T05:37:14;8.32;;;4.57;;
38465;SDS011;24244;51.950;5.902;2023-11-22T05:39:41;8.82;;;4.95;;
38465;SDS011;24244;51.950;5.902;2023-11-22T05:42:09;8.65;;;4.45;;
38465;SDS011;24244;51.950;5.902;2023-11-22T05:44:36;10.80;;;4.45;;
38465;SDS011;24244;51.950;5.902;2023-11-22T05:47:04;7.40;;;3.92;;
38465;SDS011;24244;51.950;5.902;2023-11-22T05:49:31;8.95;;;4.47;;
38465;SDS011;24244;51.950;5.902;2023-11-22T05:51:58;7.82;;;4.32;;
38465;SDS011;24244;51.950;5.902;2023-11-22T05:54:25;8.88;;;4.25;;
38465;SDS011;24244;51.950;5.902;2023-11-22T05:56:52;8.55;;;4.55;;
38465;SDS011;24244;51.950;5.902;2023-11-22T05:59:20;7.20;;;3.45;;
38465;SDS011;24244;51.950;5.902;2023-11-22T06:01:47;8.77;;;4.10;;
38465;SDS011;24244;51.950;5.902;2023-11-22T06:04:16;9.55;;;4.78;;
38465;SDS011;24244;51.950;5.902;2023-11-22T06:06:43;7.88;;;4.22;;
38465;SDS011;24244;51.950;5.902;2023-11-22T06:09:09;8.68;;;4.10;;
38465;SDS011;24244;51.950;5.902;2023-11-22T06:11:40;8.70;;;4.25;;
38465;SDS011;24244;51.950;5.902;2023-11-22T06:14:07;8.43;;;4.25;;
38465;SDS011;24244;51.950;5.902;2023-11-22T06:16:34;7.10;;;3.60;;
38465;SDS011;24244;51.950;5.902;2023-11-22T06:19:01;8.57;;;4.05;;
38465;SDS011;24244;51.950;5.902;2023-11-22T06:21:29;6.40;;;3.70;;
38465;SDS011;24244;51.950;5.902;2023-11-22T06:23:56;8.70;;;4.75;;
38465;SDS011;24244;51.950;5.902;2023-11-22T06:26:25;6.50;;;3.70;;
38465;SDS011;24244;51.950;5.902;2023-11-22T06:28:52;6.40;;;3.50;;
38465;SDS011;24244;51.950;5.902;2023-11-22T06:31:18;8.60;;;4.05;;
38465;SDS011;24244;51.950;5.902;2023-11-22T06:33:45;9.63;;;5.07;;
38465;SDS011;24244;51.950;5.902;2023-11-22T06:36:13;6.97;;;3.90;;
38465;SDS011;24244;51.950;5.902;2023-11-22T06:38:42;8.05;;;5.00;;
38465;SDS011;24244;51.950;5.902;2023-11-22T06:41:09;8.10;;;4.43;;
38465;SDS011;24244;51.950;5.902;2023-11-22T06:43:36;9.13;;;4.97;;
38465;SDS011;24244;51.950;5.902;2023-11-22T06:46:03;10.63;;;5.28;;
38465;SDS011;24244;51.950;5.902;2023-11-22T06:48:32;9.98;;;5.40;;
38465;SDS011;24244;51.950;5.902;2023-11-22T06:51:00;7.97;;;4.20;;
38465;SDS011;24244;51.950;5.902;2023-11-22T06:53:27;8.20;;;4.45;;
38465;SDS011;24244;51.950;5.902;2023-11-22T06:55:55;8.77;;;4.45;;
38465;SDS011;24244;51.950;5.902;2023-11-22T06:58:22;7.50;;;4.28;;
38465;SDS011;24244;51.950;5.902;2023-11-22T07:00:49;8.00;;;3.95;;
38465;SDS011;24244;51.950;5.902;2023-11-22T07:03:16;8.32;;;4.20;;
38465;SDS011;24244;51.950;5.902;2023-11-22T07:05:43;7.20;;;4.47;;
38465;SDS011;24244;51.950;5.902;2023-11-22T07:08:10;8.48;;;4.95;;
38465;SDS011;24244;51.950;5.902;2023-11-22T07:10:43;9.40;;;4.78;;
38465;SDS011;24244;51.950;5.902;2023-11-22T07:13:13;10.63;;;5.07;;
38465;SDS011;24244;51.950;5.902;2023-11-22T07:15:40;8.10;;;4.35;;
38465;SDS011;24244;51.950;5.902;2023-11-22T07:18:07;6.90;;;3.95;;
38465;SDS011;24244;51.950;5.902;2023-11-22T07:20:36;8.75;;;4.55;;
38465;SDS011;24244;51.950;5.902;2023-11-22T07:23:05;8.00;;;4.47;;
38465;SDS011;24244;51.950;5.902;2023-11-22T07:25:33;8.18;;;4.30;;
38465;SDS011;24244;51.950;5.902;2023-11-22T07:28:00;9.02;;;3.78;;
38465;SDS011;24244;51.950;5.902;2023-11-22T07:30:28;8.82;;;4.05;;
38465;SDS011;24244;51.950;5.902;2023-11-22T07:32:57;9.18;;;4.75;;
38465;SDS011;24244;51.950;5.902;2023-11-22T07:35:26;7.80;;;4.72;;
38465;SDS011;24244;51.950;5.902;2023-11-22T07:37:55;8.57;;;4.10;;
38465;SDS011;24244;51.950;5.902;2023-11-22T07:40:22;9.45;;;4.53;;
38465;SDS011;24244;51.950;5.902;2023-11-22T07:42:49;7.22;;;4.03;;
38465;SDS011;24244;51.950;5.902;2023-11-22T07:45:16;8.77;;;4.93;;
38465;SDS011;24244;51.950;5.902;2023-11-22T07:47:45;9.45;;;4.88;;
38465;SDS011;24244;51.950;5.902;2023-11-22T07:50:14;7.38;;;4.40;;
38465;SDS011;24244;51.950;5.902;2023-11-22T07:52:41;8.90;;;4.68;;
38465;SDS011;24244;51.950;5.902;2023-11-22T07:55:08;8.48;;;4.10;;
38465;SDS011;24244;51.950;5.902;2023-11-22T07:57:39;9.15;;;4.40;;
38465;SDS011;24244;51.950;5.902;2023-11-22T08:00:06;8.55;;;4.40;;
38465;SDS011;24244;51.950;5.902;2023-11-22T08:02:34;8.38;;;4.03;;
38465;SDS011;24244;51.950;5.902;2023-11-22T08:05:05;9.07;;;5.07;;
38465;SDS011;24244;51.950;5.902;2023-11-22T08:07:35;7.50;;;4.60;;
38465;SDS011;24244;51.950;5.902;2023-11-22T08:10:05;7.53;;;4.72;;
38465;SDS011;24244;51.950;5.902;2023-11-22T08:12:45;8.07;;;4.00;;
38465;SDS011;24244;51.950;5.902;2023-11-22T08:15:13;7.63;;;4.40;;
38465;SDS011;24244;51.950;5.902;2023-11-22T08:17:40;7.60;;;4.25;;
38465;SDS011;24244;51.950;5.902;2023-11-22T08:20:10;7.60;;;4.43;;
38465;SDS011;24244;51.950;5.902;2023-11-22T08:22:44;8.07;;;4.43;;
38465;SDS011;24244;51.950;5.902;2023-11-22T08:25:17;8.32;;;3.83;;
38465;SDS011;24244;51.950;5.902;2023-11-22T08:27:45;9.15;;;4.75;;
38465;SDS011;24244;51.950;5.902;2023-11-22T08:30:11;13.82;;;5.30;;
38465;SDS011;24244;51.950;5.902;2023-11-22T08:32:42;10.75;;;5.65;;
38465;SDS011;24244;51.950;5.902;2023-11-22T08:35:12;10.75;;;5.55;;
38465;SDS011;24244;51.950;5.902;2023-11-22T08:37:39;10.30;;;5.15;;
38465;SDS011;24244;51.950;5.902;2023-11-22T08:40:09;9.13;;;5.55;;
38465;SDS011;24244;51.950;5.902;2023-11-22T08:42:41;8.95;;;4.75;;
38465;SDS011;24244;51.950;5.902;2023-11-22T08:45:08;10.70;;;6.07;;
38465;SDS011;24244;51.950;5.902;2023-11-22T08:47:36;9.20;;;5.10;;
38465;SDS011;24244;51.950;5.902;2023-11-22T08:50:03;9.15;;;5.07;;
38465;SDS011;24244;51.950;5.902;2023-11-22T08:52:33;10.63;;;6.25;;
38465;SDS011;24244;51.950;5.902;2023-11-22T08:55:00;9.43;;;4.65;;
38465;SDS011;24244;51.950;5.902;2023-11-22T08:57:27;9.60;;;4.88;;
38465;SDS011;24244;51.950;5.902;2023-11-22T08:59:54;8.73;;;4.57;;
38465;SDS011;24244;51.950;5.902;2023-11-22T09:02:21;10.80;;;5.45;;
38465;SDS011;24244;51.950;5.902;2023-11-22T09:04:54;8.98;;;5.32;;
38465;SDS011;24244;51.950;5.902;2023-11-22T09:29:21;7.53;;;4.35;;
38465;SDS011;24244;51.950;5.902;2023-11-22T09:32:19;8.18;;;4.38;;
38465;SDS011;24244;51.950;5.902;2023-11-22T09:34:57;8.75;;;5.22;;
38465;SDS011;24244;51.950;5.902;2023-11-22T09:37:43;8.60;;;4.35;;
38465;SDS011;24244;51.950;5.902;2023-11-22T09:44:49;10.00;;;5.35;;
38465;SDS011;24244;51.950;5.902;2023-11-22T09:47:38;8.27;;;4.93;;
38465;SDS011;24244;51.950;5.902;2023-11-22T09:50:39;6.88;;;4.20;;
38465;SDS011;24244;51.950;5.902;2023-11-22T09:53:34;7.32;;;3.80;;
38465;SDS011;24244;51.950;5.902;2023-11-22T09:56:18;9.60;;;4.90;;
38465;SDS011;24244;51.950;5.902;2023-11-22T09:58:51;10.10;;;5.13;;
38465;SDS011;24244;51.950;5.902;2023-11-22T10:01:39;8.95;;;5.20;;
38465;SDS011;24244;51.950;5.902;2023-11-22T10:04:11;8.60;;;4.75;;
38465;SDS011;24244;51.950;5.902;2023-11-22T10:06:41;8.02;;;4.10;;
38465;SDS011;24244;51.950;5.902;2023-11-22T10:09:13;9.50;;;4.57;;
38465;SDS011;24244;51.950;5.902;2023-11-22T10:11:41;10.10;;;4.68;;
38465;SDS011;24244;51.950;5.902;2023-11-22T10:14:22;8.70;;;4.82;;
38465;SDS011;24244;51.950;5.902;2023-11-22T10:17:00;9.25;;;5.18;;
38465;SDS011;24244;51.950;5.902;2023-11-22T10:19:27;9.27;;;4.60;;
38465;SDS011;24244;51.950;5.902;2023-11-22T10:22:04;7.45;;;4.30;;
38465;SDS011;24244;51.950;5.902;2023-11-22T10:24:33;8.68;;;4.43;;
38465;SDS011;24244;51.950;5.902;2023-11-22T10:27:01;7.50;;;4.53;;
38465;SDS011;24244;51.950;5.902;2023-11-22T10:29:28;9.18;;;4.80;;
38465;SDS011;24244;51.950;5.902;2023-11-22T10:31:55;9.85;;;4.97;;
38465;SDS011;24244;51.950;5.902;2023-11-22T10:34:24;8.50;;;4.57;;
38465;SDS011;24244;51.950;5.902;2023-11-22T10:36:52;9.77;;;5.10;;
38465;SDS011;24244;51.950;5.902;2023-11-22T10:39:21;7.55;;;5.00;;
38465;SDS011;24244;51.950;5.902;2023-11-22T10:41:49;11.32;;;5.35;;
38465;SDS011;24244;51.950;5.902;2023-11-22T10:44:18;10.27;;;5.03;;
38465;SDS011;24244;51.950;5.902;2023-11-22T10:46:47;8.10;;;4.53;;
38465;SDS011;24244;51.950;5.902;2023-11-22T10:49:14;8.45;;;4.28;;
38465;SDS011;24244;51.950;5.902;2023-11-22T10:51:47;9.30;;;4.65;;
38465;SDS011;24244;51.950;5.902;2023-11-22T10:54:18;8.13;;;4.35;;
38465;SDS011;24244;51.950;5.902;2023-11-22T10:56:48;9.77;;;4.72;;
38465;SDS011;24244;51.950;5.902;2023-11-22T10:59:22;6.25;;;3.22;;
38465;SDS011;24244;51.950;5.902;2023-11-22T11:01:50;8.80;;;4.57;;
38465;SDS011;24244;51.950;5.902;2023-11-22T11:04:23;8.25;;;4.72;;
38465;SDS011;24244;51.950;5.902;2023-11-22T11:06:55;9.00;;;4.55;;
38465;SDS011;24244;51.950;5.902;2023-11-22T11:09:23;9.55;;;4.85;;
38465;SDS011;24244;51.950;5.902;2023-11-22T11:11:55;8.98;;;4.63;;
38465;SDS011;24244;51.950;5.902;2023-11-22T11:14:23;13.32;;;6.03;;
38465;SDS011;24244;51.950;5.902;2023-11-22T11:16:51;10.18;;;5.07;;
38465;SDS011;24244;51.950;5.902;2023-11-22T11:19:21;7.35;;;4.05;;
38465;SDS011;24244;51.950;5.902;2023-11-22T11:21:51;7.57;;;4.65;;
38465;SDS011;24244;51.950;5.902;2023-11-22T11:24:19;9.15;;;4.70;;
38465;SDS011;24244;51.950;5.902;2023-11-22T11:26:47;9.32;;;4.85;;
38465;SDS011;24244;51.950;5.902;2023-11-22T11:29:31;8.10;;;4.20;;
38465;SDS011;24244;51.950;5.902;2023-11-22T11:32:00;8.88;;;4.80;;
38465;SDS011;24244;51.950;5.902;2023-11-22T11:34:29;11.27;;;5.30;;
38465;SDS011;24244;51.950;5.902;2023-11-22T11:36:56;8.57;;;5.25;;
38465;SDS011;24244;51.950;5.902;2023-11-22T11:39:27;8.13;;;5.00;;
38465;SDS011;24244;51.950;5.902;2023-11-22T11:42:07;7.82;;;3.67;;
38465;SDS011;24244;51.950;5.902;2023-11-22T11:44:50;8.90;;;4.95;;
38465;SDS011;24244;51.950;5.902;2023-11-22T11:47:28;8.73;;;5.03;;
38465;SDS011;24244;51.950;5.902;2023-11-22T11:49:55;10.60;;;5.63;;
38465;SDS011;24244;51.950;5.902;2023-11-22T11:52:22;11.82;;;6.03;;
38465;SDS011;24244;51.950;5.902;2023-11-22T11:54:52;11.20;;;5.68;;
38465;SDS011;24244;51.950;5.902;2023-11-22T11:57:21;11.40;;;5.85;;
38465;SDS011;24244;51.950;5.902;2023-11-22T11:59:48;11.75;;;6.40;;
38465;SDS011;24244;51.950;5.902;2023-11-22T12:02:15;9.27;;;5.03;;
38465;SDS011;24244;51.950;5.902;2023-11-22T12:04:43;10.30;;;5.53;;
38465;SDS011;24244;51.950;5.902;2023-11-22T12:07:10;10.30;;;5.13;;
38465;SDS011;24244;51.950;5.902;2023-11-22T12:09:38;11.43;;;6.00;;
38465;SDS011;24244;51.950;5.902;2023-11-22T12:12:07;8.55;;;4.70;;
38465;SDS011;24244;51.950;5.902;2023-11-22T12:14:34;11.43;;;4.90;;
38465;SDS011;24244;51.950;5.902;2023-11-22T12:17:01;9.93;;;5.00;;
38465;SDS011;24244;51.950;5.902;2023-11-22T12:19:30;10.80;;;5.60;;
38465;SDS011;24244;51.950;5.902;2023-11-22T12:21:58;13.25;;;7.05;;
38465;SDS011;24244;51.950;5.902;2023-11-22T12:24:25;11.73;;;5.30;;
38465;SDS011;24244;51.950;5.902;2023-11-22T12:26:52;10.48;;;5.70;;
38465;SDS011;24244;51.950;5.902;2023-11-22T12:29:23;12.10;;;5.88;;
38465;SDS011;24244;51.950;5.902;2023-11-22T12:31:50;15.45;;;6.70;;
38465;SDS011;24244;51.950;5.902;2023-11-22T12:34:19;11.32;;;5.60;;
38465;SDS011;24244;51.950;5.902;2023-11-22T12:36:46;10.75;;;4.93;;
38465;SDS011;24244;51.950;5.902;2023-11-22T12:39:14;11.73;;;5.32;;
38465;SDS011;24244;51.950;5.902;2023-11-22T12:41:44;11.18;;;6.10;;
38465;SDS011;24244;51.950;5.902;2023-11-22T12:44:25;14.38;;;6.47;;
38465;SDS011;24244;51.950;5.902;2023-11-22T12:46:52;13.38;;;7.53;;
38465;SDS011;24244;51.950;5.902;2023-11-22T12:49:28;15.70;;;7.32;;
38465;SDS011;24244;51.950;5.902;2023-11-22T12:51:55;13.15;;;6.78;;
38465;SDS011;24244;51.950;5.902;2023-11-22T12:54:26;12.10;;;5.40;;
38465;SDS011;24244;51.950;5.902;2023-11-22T12:56:55;15.25;;;6.30;;
38465;SDS011;24244;51.950;5.902;2023-11-22T12:59:27;11.90;;;5.57;;
38465;SDS011;24244;51.950;5.902;2023-11-22T13:01:56;15.45;;;6.40;;
38465;SDS011;24244;51.950;5.902;2023-11-22T13:04:24;15.55;;;7.03;;
38465;SDS011;24244;51.950;5.902;2023-11-22T13:06:51;12.90;;;6.00;;
38465;SDS011;24244;51.950;5.902;2023-11-22T13:09:18;13.30;;;6.72;;
38465;SDS011;24244;51.950;5.902;2023-11-22T13:11:45;15.45;;;7.15;;
38465;SDS011;24244;51.950;5.902;2023-11-22T13:14:12;14.00;;;6.95;;
38465;SDS011;24244;51.950;5.902;2023-11-22T13:16:44;14.55;;;6.85;;
38465;SDS011;24244;51.950;5.902;2023-11-22T13:19:14;12.25;;;5.88;;
38465;SDS011;24244;51.950;5.902;2023-11-22T13:21:44;12.73;;;5.97;;
38465;SDS011;24244;51.950;5.902;2023-11-22T13:24:11;15.18;;;7.30;;
38465;SDS011;24244;51.950;5.902;2023-11-22T13:26:40;13.13;;;6.47;;
38465;SDS011;24244;51.950;5.902;2023-11-22T13:29:07;12.07;;;5.93;;
38465;SDS011;24244;51.950;5.902;2023-11-22T13:31:34;13.45;;;6.88;;
38465;SDS011;24244;51.950;5.902;2023-11-22T13:34:03;13.18;;;6.85;;
38465;SDS011;24244;51.950;5.902;2023-11-22T13:36:30;10.68;;;5.32;;
38465;SDS011;24244;51.950;5.902;2023-11-22T13:38:58;17.20;;;6.90;;
38465;SDS011;24244;51.950;5.902;2023-11-22T13:41:26;13.00;;;5.75;;
38465;SDS011;24244;51.950;5.902;2023-11-22T13:43:53;12.05;;;6.20;;
38465;SDS011;24244;51.950;5.902;2023-11-22T13:46:20;14.02;;;6.63;;
38465;SDS011;24244;51.950;5.902;2023-11-22T13:48:47;15.43;;;7.65;;
38465;SDS011;24244;51.950;5.902;2023-11-22T13:51:15;14.15;;;7.10;;
38465;SDS011;24244;51.950;5.902;2023-11-22T13:53:42;17.55;;;7.43;;
38465;SDS011;24244;51.950;5.902;2023-11-22T13:56:16;13.65;;;6.53;;
38465;SDS011;24244;51.950;5.902;2023-11-22T13:58:45;16.33;;;7.47;;
38465;SDS011;24244;51.950;5.902;2023-11-22T14:01:12;17.08;;;7.97;;
38465;SDS011;24244;51.950;5.902;2023-11-22T14:03:43;13.18;;;7.00;;
38465;SDS011;24244;51.950;5.902;2023-11-22T14:06:10;12.98;;;6.13;;
38465;SDS011;24244;51.950;5.902;2023-11-22T14:08:41;17.80;;;7.35;;
38465;SDS011;24244;51.950;5.902;2023-11-22T14:11:08;16.77;;;7.57;;
38465;SDS011;24244;51.950;5.902;2023-11-22T14:13:39;16.10;;;6.47;;
38465;SDS011;24244;51.950;5.902;2023-11-22T14:16:07;15.05;;;7.00;;
38465;SDS011;24244;51.950;5.902;2023-11-22T14:18:36;18.85;;;7.38;;
38465;SDS011;24244;51.950;5.902;2023-11-22T14:21:04;18.27;;;7.60;;
38465;SDS011;24244;51.950;5.902;2023-11-22T14:23:31;18.95;;;9.27;;
38465;SDS011;24244;51.950;5.902;2023-11-22T14:26:00;18.92;;;7.40;;
38465;SDS011;24244;51.950;5.902;2023-11-22T14:28:27;17.30;;;7.47;;
38465;SDS011;24244;51.950;5.902;2023-11-22T14:30:54;17.83;;;8.18;;
38465;SDS011;24244;51.950;5.902;2023-11-22T14:33:21;18.60;;;9.02;;
38465;SDS011;24244;51.950;5.902;2023-11-22T14:35:49;21.80;;;8.57;;
38465;SDS011;24244;51.950;5.902;2023-11-22T14:38:18;18.27;;;8.80;;
38465;SDS011;24244;51.950;5.902;2023-11-22T14:40:52;19.02;;;8.98;;
38465;SDS011;24244;51.950;5.902;2023-11-22T14:43:31;16.52;;;6.97;;
38465;SDS011;24244;51.950;5.902;2023-11-22T14:45:58;17.35;;;8.05;;
38465;SDS011;24244;51.950;5.902;2023-11-22T14:48:26;22.20;;;8.32;;
38465;SDS011;24244;51.950;5.902;2023-11-22T14:50:53;15.90;;;7.43;;
38465;SDS011;24244;51.950;5.902;2023-11-22T14:53:21;16.73;;;8.27;;
38465;SDS011;24244;51.950;5.902;2023-11-22T14:55:48;17.88;;;7.68;;
38465;SDS011;24244;51.950;5.902;2023-11-22T14:58:14;17.10;;;8.55;;
38465;SDS011;24244;51.950;5.902;2023-11-22T15:00:44;21.02;;;9.15;;
38465;SDS011;24244;51.950;5.902;2023-11-22T15:03:12;18.58;;;7.75;;
38465;SDS011;24244;51.950;5.902;2023-11-22T15:05:42;18.60;;;7.95;;
38465;SDS011;24244;51.950;5.902;2023-11-22T15:08:09;18.40;;;8.10;;
38465;SDS011;24244;51.950;5.902;2023-11-22T15:10:36;17.42;;;7.65;;
38465;SDS011;24244;51.950;5.902;2023-11-22T15:13:03;17.80;;;7.70;;
38465;SDS011;24244;51.950;5.902;2023-11-22T15:15:30;19.38;;;8.95;;
38465;SDS011;24244;51.950;5.902;2023-11-22T15:17:59;19.83;;;8.13;;
38465;SDS011;24244;51.950;5.902;2023-11-22T15:20:32;24.13;;;8.82;;
38465;SDS011;24244;51.950;5.902;2023-11-22T15:23:00;17.52;;;8.00;;
38465;SDS011;24244;51.950;5.902;2023-11-22T15:25:30;19.35;;;6.97;;